createdAt,value
2023-03-02T00:00:17.556Z,18.23
2023-03-02T00:05:19.802Z,16.17
2023-03-02T00:10:21.530Z,14.82
2023-03-02T00:15:23.214Z,16.88
2023-03-02T00:20:24.961Z,17.48
2023-03-02T00:25:26.770Z,15.13
2023-03-02T00:30:28.551Z,19.52
2023-03-02T00:35:30.411Z,17.33
2023-03-02T00:40:32.060Z,15.23
2023-03-02T00:45:33.761Z,16.13
2023-03-02T00:50:40.980Z,15.00
2023-03-02T00:55:42.792Z,16.35
2023-03-02T01:00:44.563Z,19.70
2023-03-02T01:05:46.527Z,16.20
2023-03-02T01:10:48.406Z,18.40
2023-03-02T01:15:59.303Z,13.88
2023-03-02T01:21:19.168Z,15.20
2023-03-02T01:26:20.913Z,14.52
2023-03-02T01:31:23.500Z,16.17
2023-03-02T01:36:25.258Z,17.80
2023-03-02T01:41:27.433Z,16.08
2023-03-02T01:46:35.226Z,18.50
2023-03-02T01:51:43.781Z,20.55
2023-03-02T01:56:46.678Z,18.05
2023-03-02T02:01:55.401Z,19.40
2023-03-02T02:07:01.445Z,19.02
2023-03-02T02:12:03.173Z,17.95
2023-03-02T02:17:05.301Z,17.50
2023-03-02T02:22:09.815Z,17.27
2023-03-02T02:27:12.658Z,15.82
2023-03-02T02:32:21.734Z,18.38
2023-03-02T02:37:29.852Z,17.45
2023-03-02T02:42:35.885Z,15.60
2023-03-02T02:47:38.268Z,22.10
2023-03-02T02:52:41.588Z,19.10
2023-03-02T02:57:43.543Z,22.10
2023-03-02T03:02:50.861Z,17.98
2023-03-02T03:07:53.213Z,16.35
2023-03-02T03:12:56.314Z,14.20
2023-03-02T03:17:59.427Z,17.20
2023-03-02T03:23:01.389Z,17.58
2023-03-02T03:28:04.057Z,16.75
2023-03-02T03:33:05.745Z,19.77
2023-03-02T03:38:07.970Z,17.92
2023-03-02T03:43:09.771Z,18.08
2023-03-02T03:48:11.466Z,18.27
2023-03-02T03:53:13.264Z,20.05
2023-03-02T03:58:14.990Z,18.25
2023-03-02T04:03:18.207Z,19.95
2023-03-02T04:08:19.960Z,18.75
2023-03-02T04:13:21.713Z,23.30
2023-03-02T04:18:23.445Z,21.50
2023-03-02T04:23:25.172Z,22.23
2023-03-02T04:28:26.980Z,19.13
2023-03-02T04:33:28.816Z,22.73
2023-03-02T04:38:30.544Z,22.63
2023-03-02T04:43:32.410Z,22.23
2023-03-02T04:48:34.157Z,26.42
2023-03-02T04:53:35.865Z,23.98
2023-03-02T04:58:37.553Z,25.90
2023-03-02T05:03:39.313Z,23.63
2023-03-02T05:08:41.797Z,18.27
2023-03-02T05:13:43.583Z,19.65
2023-03-02T05:18:45.748Z,19.83
2023-03-02T05:23:47.850Z,22.17
2023-03-02T05:28:49.878Z,20.33
2023-03-02T05:33:51.843Z,21.90
2023-03-02T05:38:53.768Z,23.90
2023-03-02T05:43:55.666Z,24.60
2023-03-02T05:48:57.674Z,22.15
2023-03-02T05:53:59.546Z,17.73
2023-03-02T05:59:01.283Z,20.65
2023-03-02T06:04:03.068Z,20.20
2023-03-02T06:09:04.810Z,19.50
2023-03-02T06:14:06.577Z,20.25
2023-03-02T06:19:08.448Z,21.77
2023-03-02T06:24:10.230Z,18.55
2023-03-02T06:29:13.235Z,22.38
2023-03-02T06:34:15.675Z,21.90
2023-03-02T06:39:17.434Z,22.13
2023-03-02T06:44:19.347Z,20.77
2023-03-02T06:49:21.058Z,21.48
2023-03-02T06:54:24.134Z,20.88
2023-03-02T06:59:26.178Z,21.80
2023-03-02T07:04:28.511Z,22.73
2023-03-02T07:09:34.203Z,16.10
2023-03-02T07:14:36.582Z,20.00
2023-03-02T07:19:40.803Z,47.28
2023-03-02T07:24:44.889Z,16.25
2023-03-02T07:29:46.843Z,20.75
2023-03-02T07:34:48.699Z,16.25
2023-03-02T07:39:50.488Z,25.15
2023-03-02T07:44:54.240Z,22.65
2023-03-02T07:49:56.450Z,21.63
2023-03-02T07:54:58.337Z,19.90
2023-03-02T08:00:00.160Z,24.17
2023-03-02T08:05:01.992Z,24.45
2023-03-02T08:10:04.544Z,29.95
2023-03-02T08:15:07.168Z,24.27
2023-03-02T08:20:09.624Z,22.27
2023-03-02T08:25:11.488Z,20.98
2023-03-02T08:30:13.835Z,20.10
2023-03-02T08:35:15.800Z,32.15
2023-03-02T08:40:17.631Z,25.73
2023-03-02T08:45:20.931Z,23.88
2023-03-02T08:50:22.912Z,24.10
2023-03-02T08:55:24.896Z,24.45
2023-03-02T09:00:26.629Z,20.17
2023-03-02T09:05:28.428Z,24.85
2023-03-02T09:10:30.143Z,20.65
2023-03-02T09:15:31.886Z,24.40
2023-03-02T09:20:34.727Z,25.83
2023-03-02T09:25:36.489Z,24.42
2023-03-02T09:30:38.286Z,25.02
2023-03-02T09:35:40.051Z,25.75
2023-03-02T09:41:00.667Z,24.83
2023-03-02T09:46:27.492Z,24.88
2023-03-02T09:52:30.404Z,21.90
2023-03-02T09:57:36.185Z,22.10
2023-03-02T10:02:47.979Z,25.17
2023-03-02T10:07:49.976Z,23.80
2023-03-02T10:13:10.358Z,24.35
2023-03-02T10:18:24.074Z,24.60
2023-03-02T10:23:38.994Z,24.98
2023-03-02T10:28:52.154Z,26.98
2023-03-02T10:33:54.252Z,22.98
2023-03-02T10:38:57.307Z,23.80
2023-03-02T10:44:16.034Z,23.35
2023-03-02T10:49:35.960Z,22.98
2023-03-02T10:54:37.854Z,23.60
2023-03-02T10:59:47.643Z,20.92
2023-03-02T11:04:57.822Z,25.27
2023-03-02T11:10:01.826Z,22.85
2023-03-02T11:15:22.513Z,22.70
2023-03-02T11:20:28.431Z,24.95
2023-03-02T11:25:35.515Z,21.17
2023-03-02T11:30:45.074Z,23.52
2023-03-02T11:35:53.749Z,21.42
2023-03-02T11:41:06.446Z,23.65
2023-03-02T11:46:22.280Z,15.45
2023-03-02T11:51:29.277Z,20.02
2023-03-02T11:56:38.350Z,18.23
2023-03-02T12:01:41.023Z,17.65
2023-03-02T12:06:45.230Z,20.40
2023-03-02T12:11:53.571Z,21.65
2023-03-02T12:17:26.580Z,19.15
2023-03-02T12:22:31.116Z,16.00
2023-03-02T12:27:39.437Z,14.88
2023-03-02T12:32:43.526Z,17.17
2023-03-02T12:38:19.384Z,12.73
2023-03-02T12:43:29.996Z,13.00
2023-03-02T12:49:03.502Z,13.55
2023-03-02T12:54:07.613Z,13.63
2023-03-02T12:59:24.043Z,13.55
2023-03-02T13:04:27.115Z,14.45
2023-03-02T13:09:29.494Z,13.70
2023-03-02T13:14:31.313Z,13.48
2023-03-02T13:19:33.961Z,16.08
2023-03-02T13:24:47.553Z,12.32
2023-03-02T13:29:52.197Z,15.13
2023-03-02T13:35:00.491Z,12.98
2023-03-02T13:40:05.567Z,12.23
2023-03-02T13:45:21.472Z,15.10
2023-03-02T13:50:32.682Z,17.15
2023-03-02T13:55:35.329Z,18.02
2023-03-02T14:00:39.363Z,16.55
2023-03-02T14:05:41.444Z,15.93
2023-03-02T14:10:43.660Z,16.13
2023-03-02T14:15:51.080Z,13.20
2023-03-02T14:20:56.547Z,14.00
2023-03-02T14:25:58.612Z,17.10
2023-03-02T14:31:00.804Z,13.90
2023-03-02T14:36:04.567Z,16.25
2023-03-02T14:41:13.906Z,12.85
2023-03-02T14:51:35.751Z,13.05
2023-03-02T14:56:37.697Z,10.80
2023-03-02T15:01:40.059Z,12.95
2023-03-02T15:06:43.066Z,11.63
2023-03-02T15:11:44.912Z,11.88
2023-03-02T15:16:46.892Z,14.40
2023-03-02T15:21:48.663Z,15.15
2023-03-02T15:26:51.398Z,11.75
2023-03-02T15:31:53.232Z,12.20
2023-03-02T15:36:55.103Z,11.00
2023-03-02T15:41:56.809Z,14.52
2023-03-02T15:46:59.919Z,12.20
2023-03-02T15:52:01.935Z,13.10
2023-03-02T15:57:03.714Z,13.02
2023-03-02T16:02:05.749Z,11.75
2023-03-02T16:07:07.685Z,12.85
2023-03-02T16:12:09.425Z,13.02
2023-03-02T16:17:11.828Z,11.48
2023-03-02T16:22:13.608Z,14.07
2023-03-02T16:27:15.732Z,12.20
2023-03-02T16:32:17.603Z,15.57
2023-03-02T16:37:19.373Z,12.73
2023-03-02T16:42:21.381Z,15.80
2023-03-02T16:47:23.189Z,13.70
2023-03-02T16:52:24.983Z,14.45
2023-03-02T16:57:26.799Z,13.82
2023-03-02T17:02:29.297Z,12.07
2023-03-02T17:07:31.190Z,13.75
2023-03-02T17:12:33.048Z,12.27
2023-03-02T17:17:34.802Z,18.55
2023-03-02T17:22:36.771Z,29.50
2023-03-02T17:27:39.364Z,34.40
2023-03-02T17:32:41.908Z,40.78
2023-03-02T17:37:43.914Z,42.22
2023-03-02T17:42:45.695Z,37.15
2023-03-02T17:47:49.619Z,36.30
2023-03-02T17:52:51.634Z,38.58
2023-03-02T17:57:53.434Z,35.08
2023-03-02T18:02:55.182Z,41.00
2023-03-02T18:07:57.339Z,39.17
2023-03-02T18:12:59.095Z,38.55
2023-03-02T18:18:00.805Z,43.83
2023-03-02T18:23:02.677Z,39.55
2023-03-02T18:28:04.547Z,37.53
2023-03-02T18:33:06.272Z,46.25
2023-03-02T18:38:08.543Z,44.80
2023-03-02T18:43:10.472Z,46.25
2023-03-02T18:48:12.343Z,46.60
2023-03-02T18:53:14.177Z,44.08
2023-03-02T18:58:21.477Z,57.38
2023-03-02T19:03:24.730Z,42.33
2023-03-02T19:08:27.367Z,46.60
2023-03-02T19:13:29.274Z,45.13
2023-03-02T19:18:31.328Z,43.33
2023-03-02T19:23:33.136Z,41.30
2023-03-02T19:28:36.125Z,41.38
2023-03-02T19:33:38.776Z,42.47
2023-03-02T19:38:42.774Z,42.10
2023-03-02T19:43:45.898Z,45.05
2023-03-02T19:48:47.646Z,46.05
2023-03-02T19:53:49.513Z,40.75
2023-03-02T19:58:54.025Z,39.75
2023-03-02T20:03:57.791Z,44.67
2023-03-02T20:09:02.540Z,45.88
2023-03-02T20:14:04.592Z,45.67
2023-03-02T20:19:06.414Z,43.08
2023-03-02T20:24:08.376Z,45.75
2023-03-02T20:29:11.665Z,42.38
2023-03-02T20:34:16.450Z,53.67
2023-03-02T20:39:34.872Z,54.17
2023-03-02T20:44:36.989Z,51.35
2023-03-02T20:49:39.243Z,49.05
2023-03-02T20:54:43.347Z,51.55
2023-03-02T20:59:45.929Z,49.78
2023-03-02T21:04:47.952Z,49.28
2023-03-02T21:09:50.962Z,49.85
2023-03-02T21:14:52.733Z,46.83
2023-03-02T21:19:55.036Z,46.28
2023-03-02T21:24:57.006Z,45.78
2023-03-02T21:29:59.704Z,55.58
2023-03-02T21:35:02.508Z,50.92
2023-03-02T21:40:04.921Z,54.15
2023-03-02T21:45:08.945Z,50.53
2023-03-02T21:50:17.037Z,54.05
2023-03-02T21:55:19.377Z,49.25
2023-03-02T22:00:32.861Z,52.97
2023-03-02T22:05:35.437Z,48.42
2023-03-02T22:10:43.993Z,53.83
2023-03-02T22:15:47.035Z,53.58
2023-03-02T22:20:51.158Z,54.15
2023-03-02T22:25:56.538Z,48.55
2023-03-02T22:31:00.367Z,49.35
2023-03-02T22:36:11.991Z,46.55
2023-03-02T22:41:16.392Z,54.53
2023-03-02T22:46:21.950Z,56.88
2023-03-02T22:51:27.836Z,55.83
2023-03-02T22:56:34.078Z,58.72
2023-03-02T23:01:42.404Z,54.92
2023-03-02T23:06:49.377Z,57.03
2023-03-02T23:11:52.883Z,48.53
2023-03-02T23:17:13.474Z,48.20
2023-03-02T23:22:15.174Z,45.58
2023-03-02T23:27:16.891Z,47.13
2023-03-02T23:32:19.660Z,46.97
2023-03-02T23:37:21.637Z,42.78
2023-03-02T23:42:23.345Z,41.38
2023-03-02T23:47:25.102Z,41.05
2023-03-02T23:52:26.835Z,34.13
2023-03-02T23:57:28.528Z,35.58
